Alta Floresta, Brazil
Current Conditions -  °F | °C
As of 12:00 PM on Saturday 25 Oct 2014 (Local Time) from SBAT Reporting Station
Broken Clouds Broken Clouds  
Wind Chill: 86°   Ceiling: 9000
Heat Index: 93°   Visibility: 6mi
Dew Point: 73°   Wind: 1mph
Humidity: 66%   Direction: 240°WSW
Pressure: 29.91"   Gusts: NA
Location:  9.9°S, 55.91°W
Report Text: SBAT 251500Z 24001KT 9999 SCT020 BKN090 30/23 Q1013
Loading
Personal Weather Stations






























Interactive Weather Map
Tropical Storm Tracking
New forecast layout! Learn more

10-Day Weather Forecast

Advertisements
Track Severe Weather on mobile